sensor_id;sensor_type;location;lat;lon;timestamp;P1;durP1;ratioP1;P2;durP2;ratioP2
31378;SDS011;61664;48.112;11.662;2023-08-30T00:02:12;0.00;;;0.00;;
31378;SDS011;61664;48.112;11.662;2023-08-30T00:04:38;0.00;;;0.00;;
31378;SDS011;61664;48.112;11.662;2023-08-30T00:07:05;0.00;;;0.00;;
31378;SDS011;61664;48.112;11.662;2023-08-30T00:09:32;0.00;;;0.00;;
31378;SDS011;61664;48.112;11.662;2023-08-30T00:11:59;0.10;;;0.10;;
31378;SDS011;61664;48.112;11.662;2023-08-30T00:14:26;0.20;;;0.20;;
31378;SDS011;61664;48.112;11.662;2023-08-30T00:16:53;0.10;;;0.10;;
31378;SDS011;61664;48.112;11.662;2023-08-30T00:19:20;0.00;;;0.00;;
31378;SDS011;61664;48.112;11.662;2023-08-30T00:21:47;0.00;;;0.00;;
31378;SDS011;61664;48.112;11.662;2023-08-30T00:24:14;0.10;;;0.10;;
31378;SDS011;61664;48.112;11.662;2023-08-30T00:26:41;0.00;;;0.00;;
31378;SDS011;61664;48.112;11.662;2023-08-30T00:29:08;0.00;;;0.00;;
31378;SDS011;61664;48.112;11.662;2023-08-30T00:31:35;0.00;;;0.00;;
31378;SDS011;61664;48.112;11.662;2023-08-30T00:34:02;0.10;;;0.10;;
31378;SDS011;61664;48.112;11.662;2023-08-30T00:36:29;0.00;;;0.00;;
31378;SDS011;61664;48.112;11.662;2023-08-30T00:38:56;0.10;;;0.10;;
31378;SDS011;61664;48.112;11.662;2023-08-30T00:41:23;0.00;;;0.00;;
31378;SDS011;61664;48.112;11.662;2023-08-30T00:43:50;0.10;;;0.10;;
31378;SDS011;61664;48.112;11.662;2023-08-30T00:46:17;0.10;;;0.10;;
31378;SDS011;61664;48.112;11.662;2023-08-30T00:48:44;0.15;;;0.15;;
31378;SDS011;61664;48.112;11.662;2023-08-30T00:51:11;0.00;;;0.00;;
31378;SDS011;61664;48.112;11.662;2023-08-30T00:53:38;0.10;;;0.10;;
31378;SDS011;61664;48.112;11.662;2023-08-30T00:56:06;0.10;;;0.10;;
31378;SDS011;61664;48.112;11.662;2023-08-30T00:58:33;0.00;;;0.00;;
31378;SDS011;61664;48.112;11.662;2023-08-30T01:01:00;0.00;;;0.00;;
31378;SDS011;61664;48.112;11.662;2023-08-30T01:03:27;0.10;;;0.10;;
31378;SDS011;61664;48.112;11.662;2023-08-30T01:05:54;0.10;;;0.10;;
31378;SDS011;61664;48.112;11.662;2023-08-30T01:08:21;0.10;;;0.10;;
31378;SDS011;61664;48.112;11.662;2023-08-30T01:13:44;0.08;;;0.08;;
31378;SDS011;61664;48.112;11.662;2023-08-30T01:16:37;0.00;;;0.00;;
31378;SDS011;61664;48.112;11.662;2023-08-30T01:19:12;0.00;;;0.00;;
31378;SDS011;61664;48.112;11.662;2023-08-30T01:22:15;0.00;;;0.00;;
31378;SDS011;61664;48.112;11.662;2023-08-30T01:27:45;0.00;;;0.00;;
31378;SDS011;61664;48.112;11.662;2023-08-30T01:30:15;0.00;;;0.00;;
31378;SDS011;61664;48.112;11.662;2023-08-30T01:32:46;0.05;;;0.05;;
31378;SDS011;61664;48.112;11.662;2023-08-30T01:35:14;0.00;;;0.00;;
31378;SDS011;61664;48.112;11.662;2023-08-30T01:37:44;0.00;;;0.00;;
31378;SDS011;61664;48.112;11.662;2023-08-30T01:40:13;0.00;;;0.00;;
31378;SDS011;61664;48.112;11.662;2023-08-30T01:42:43;0.00;;;0.00;;
31378;SDS011;61664;48.112;11.662;2023-08-30T01:45:12;0.08;;;0.08;;
31378;SDS011;61664;48.112;11.662;2023-08-30T01:47:43;0.00;;;0.00;;
31378;SDS011;61664;48.112;11.662;2023-08-30T01:50:12;0.00;;;0.00;;
31378;SDS011;61664;48.112;11.662;2023-08-30T01:52:39;0.00;;;0.00;;
31378;SDS011;61664;48.112;11.662;2023-08-30T01:55:08;0.00;;;0.00;;
31378;SDS011;61664;48.112;11.662;2023-08-30T01:57:36;0.00;;;0.00;;
31378;SDS011;61664;48.112;11.662;2023-08-30T02:00:03;0.00;;;0.00;;
31378;SDS011;61664;48.112;11.662;2023-08-30T02:02:33;0.00;;;0.00;;
31378;SDS011;61664;48.112;11.662;2023-08-30T02:05:00;0.00;;;0.00;;
31378;SDS011;61664;48.112;11.662;2023-08-30T02:07:36;0.00;;;0.00;;
31378;SDS011;61664;48.112;11.662;2023-08-30T02:10:34;0.00;;;0.00;;
31378;SDS011;61664;48.112;11.662;2023-08-30T02:13:04;0.00;;;0.00;;
31378;SDS011;61664;48.112;11.662;2023-08-30T02:15:33;0.08;;;0.08;;
31378;SDS011;61664;48.112;11.662;2023-08-30T02:18:04;0.10;;;0.10;;
31378;SDS011;61664;48.112;11.662;2023-08-30T02:20:32;0.00;;;0.00;;
31378;SDS011;61664;48.112;11.662;2023-08-30T02:22:59;0.00;;;0.00;;
31378;SDS011;61664;48.112;11.662;2023-08-30T02:25:39;0.00;;;0.00;;
31378;SDS011;61664;48.112;11.662;2023-08-30T02:28:06;0.00;;;0.00;;
31378;SDS011;61664;48.112;11.662;2023-08-30T02:30:33;0.00;;;0.00;;
31378;SDS011;61664;48.112;11.662;2023-08-30T02:33:00;0.00;;;0.00;;
31378;SDS011;61664;48.112;11.662;2023-08-30T02:35:28;0.00;;;0.00;;
31378;SDS011;61664;48.112;11.662;2023-08-30T02:37:54;0.00;;;0.00;;
31378;SDS011;61664;48.112;11.662;2023-08-30T02:40:21;0.00;;;0.00;;
31378;SDS011;61664;48.112;11.662;2023-08-30T02:42:48;0.00;;;0.00;;
31378;SDS011;61664;48.112;11.662;2023-08-30T02:45:15;0.08;;;0.08;;
31378;SDS011;61664;48.112;11.662;2023-08-30T02:47:44;0.00;;;0.00;;
31378;SDS011;61664;48.112;11.662;2023-08-30T02:50:11;0.00;;;0.00;;
31378;SDS011;61664;48.112;11.662;2023-08-30T02:52:38;0.00;;;0.00;;
31378;SDS011;61664;48.112;11.662;2023-08-30T02:55:05;0.00;;;0.00;;
31378;SDS011;61664;48.112;11.662;2023-08-30T02:57:32;0.00;;;0.00;;
31378;SDS011;61664;48.112;11.662;2023-08-30T02:59:59;0.00;;;0.00;;
31378;SDS011;61664;48.112;11.662;2023-08-30T03:02:26;0.00;;;0.00;;
31378;SDS011;61664;48.112;11.662;2023-08-30T03:04:53;0.00;;;0.00;;
31378;SDS011;61664;48.112;11.662;2023-08-30T03:07:20;0.00;;;0.00;;
31378;SDS011;61664;48.112;11.662;2023-08-30T03:09:51;0.00;;;0.00;;
31378;SDS011;61664;48.112;11.662;2023-08-30T03:12:19;0.00;;;0.00;;
31378;SDS011;61664;48.112;11.662;2023-08-30T03:14:47;0.00;;;0.00;;
31378;SDS011;61664;48.112;11.662;2023-08-30T03:17:14;0.00;;;0.00;;
31378;SDS011;61664;48.112;11.662;2023-08-30T03:19:41;0.00;;;0.00;;
31378;SDS011;61664;48.112;11.662;2023-08-30T03:22:07;0.00;;;0.00;;
31378;SDS011;61664;48.112;11.662;2023-08-30T03:24:34;0.00;;;0.00;;
31378;SDS011;61664;48.112;11.662;2023-08-30T03:27:01;0.00;;;0.00;;
31378;SDS011;61664;48.112;11.662;2023-08-30T03:29:28;0.00;;;0.00;;
31378;SDS011;61664;48.112;11.662;2023-08-30T03:31:55;0.00;;;0.00;;
31378;SDS011;61664;48.112;11.662;2023-08-30T03:34:22;0.00;;;0.00;;
31378;SDS011;61664;48.112;11.662;2023-08-30T03:36:49;0.00;;;0.00;;
31378;SDS011;61664;48.112;11.662;2023-08-30T03:39:20;0.00;;;0.00;;
31378;SDS011;61664;48.112;11.662;2023-08-30T03:41:48;0.10;;;0.10;;
31378;SDS011;61664;48.112;11.662;2023-08-30T03:44:15;0.00;;;0.00;;
31378;SDS011;61664;48.112;11.662;2023-08-30T03:46:41;0.00;;;0.00;;
31378;SDS011;61664;48.112;11.662;2023-08-30T03:49:08;0.00;;;0.00;;
31378;SDS011;61664;48.112;11.662;2023-08-30T03:51:35;0.00;;;0.00;;
31378;SDS011;61664;48.112;11.662;2023-08-30T03:54:02;0.00;;;0.00;;
31378;SDS011;61664;48.112;11.662;2023-08-30T03:56:29;0.00;;;0.00;;
31378;SDS011;61664;48.112;11.662;2023-08-30T03:58:56;0.00;;;0.00;;
31378;SDS011;61664;48.112;11.662;2023-08-30T04:01:23;0.00;;;0.00;;
31378;SDS011;61664;48.112;11.662;2023-08-30T04:03:50;0.00;;;0.00;;
31378;SDS011;61664;48.112;11.662;2023-08-30T04:06:17;0.00;;;0.00;;
31378;SDS011;61664;48.112;11.662;2023-08-30T04:08:45;0.00;;;0.00;;
31378;SDS011;61664;48.112;11.662;2023-08-30T04:11:11;0.00;;;0.00;;
31378;SDS011;61664;48.112;11.662;2023-08-30T04:13:38;0.00;;;0.00;;
31378;SDS011;61664;48.112;11.662;2023-08-30T04:16:05;0.00;;;0.00;;
31378;SDS011;61664;48.112;11.662;2023-08-30T04:18:32;0.00;;;0.00;;
31378;SDS011;61664;48.112;11.662;2023-08-30T04:20:59;0.00;;;0.00;;
31378;SDS011;61664;48.112;11.662;2023-08-30T04:23:29;0.00;;;0.00;;
31378;SDS011;61664;48.112;11.662;2023-08-30T04:25:56;0.00;;;0.00;;
31378;SDS011;61664;48.112;11.662;2023-08-30T04:28:22;0.00;;;0.00;;
31378;SDS011;61664;48.112;11.662;2023-08-30T04:30:49;0.00;;;0.00;;
31378;SDS011;61664;48.112;11.662;2023-08-30T04:33:20;0.00;;;0.00;;
31378;SDS011;61664;48.112;11.662;2023-08-30T04:35:54;0.00;;;0.00;;
31378;SDS011;61664;48.112;11.662;2023-08-30T04:38:21;0.00;;;0.00;;
31378;SDS011;61664;48.112;11.662;2023-08-30T04:40:48;0.10;;;0.10;;
31378;SDS011;61664;48.112;11.662;2023-08-30T04:43:15;0.00;;;0.00;;
31378;SDS011;61664;48.112;11.662;2023-08-30T04:45:42;0.00;;;0.00;;
31378;SDS011;61664;48.112;11.662;2023-08-30T04:48:12;0.00;;;0.00;;
31378;SDS011;61664;48.112;11.662;2023-08-30T04:50:39;0.00;;;0.00;;
31378;SDS011;61664;48.112;11.662;2023-08-30T04:53:06;0.00;;;0.00;;
31378;SDS011;61664;48.112;11.662;2023-08-30T04:55:33;0.00;;;0.00;;
31378;SDS011;61664;48.112;11.662;2023-08-30T04:58:00;0.00;;;0.00;;
31378;SDS011;61664;48.112;11.662;2023-08-30T05:00:27;0.00;;;0.00;;
31378;SDS011;61664;48.112;11.662;2023-08-30T05:02:53;0.00;;;0.00;;
31378;SDS011;61664;48.112;11.662;2023-08-30T05:05:20;0.00;;;0.00;;
31378;SDS011;61664;48.112;11.662;2023-08-30T05:07:47;0.00;;;0.00;;
31378;SDS011;61664;48.112;11.662;2023-08-30T05:10:14;0.00;;;0.00;;
31378;SDS011;61664;48.112;11.662;2023-08-30T05:12:42;0.00;;;0.00;;
31378;SDS011;61664;48.112;11.662;2023-08-30T05:15:14;0.00;;;0.00;;
31378;SDS011;61664;48.112;11.662;2023-08-30T05:17:41;0.00;;;0.00;;
31378;SDS011;61664;48.112;11.662;2023-08-30T05:20:08;0.00;;;0.00;;
31378;SDS011;61664;48.112;11.662;2023-08-30T05:22:35;0.00;;;0.00;;
31378;SDS011;61664;48.112;11.662;2023-08-30T05:25:04;0.00;;;0.00;;
31378;SDS011;61664;48.112;11.662;2023-08-30T05:27:31;0.00;;;0.00;;
31378;SDS011;61664;48.112;11.662;2023-08-30T05:29:58;0.00;;;0.00;;
31378;SDS011;61664;48.112;11.662;2023-08-30T05:32:25;0.00;;;0.00;;
31378;SDS011;61664;48.112;11.662;2023-08-30T05:34:52;0.00;;;0.00;;
31378;SDS011;61664;48.112;11.662;2023-08-30T05:37:19;0.00;;;0.00;;
31378;SDS011;61664;48.112;11.662;2023-08-30T05:39:46;0.00;;;0.00;;
31378;SDS011;61664;48.112;11.662;2023-08-30T05:42:13;0.00;;;0.00;;
31378;SDS011;61664;48.112;11.662;2023-08-30T05:44:40;0.00;;;0.00;;
31378;SDS011;61664;48.112;11.662;2023-08-30T05:47:07;0.00;;;0.00;;
31378;SDS011;61664;48.112;11.662;2023-08-30T05:49:34;0.00;;;0.00;;
31378;SDS011;61664;48.112;11.662;2023-08-30T05:52:01;0.00;;;0.00;;
31378;SDS011;61664;48.112;11.662;2023-08-30T05:54:27;0.00;;;0.00;;
31378;SDS011;61664;48.112;11.662;2023-08-30T05:56:57;0.00;;;0.00;;
31378;SDS011;61664;48.112;11.662;2023-08-30T05:59:24;0.00;;;0.00;;
31378;SDS011;61664;48.112;11.662;2023-08-30T06:01:51;0.00;;;0.00;;
31378;SDS011;61664;48.112;11.662;2023-08-30T06:04:18;0.00;;;0.00;;
31378;SDS011;61664;48.112;11.662;2023-08-30T06:06:46;0.00;;;0.00;;
31378;SDS011;61664;48.112;11.662;2023-08-30T06:09:13;0.00;;;0.00;;
31378;SDS011;61664;48.112;11.662;2023-08-30T06:11:39;0.00;;;0.00;;
31378;SDS011;61664;48.112;11.662;2023-08-30T06:14:07;0.00;;;0.00;;
31378;SDS011;61664;48.112;11.662;2023-08-30T06:16:33;0.00;;;0.00;;
31378;SDS011;61664;48.112;11.662;2023-08-30T06:19:00;0.00;;;0.00;;
31378;SDS011;61664;48.112;11.662;2023-08-30T06:21:28;0.00;;;0.00;;
31378;SDS011;61664;48.112;11.662;2023-08-30T06:23:55;0.00;;;0.00;;
31378;SDS011;61664;48.112;11.662;2023-08-30T06:26:22;0.00;;;0.00;;
31378;SDS011;61664;48.112;11.662;2023-08-30T06:28:49;0.00;;;0.00;;
31378;SDS011;61664;48.112;11.662;2023-08-30T06:31:29;0.00;;;0.00;;
31378;SDS011;61664;48.112;11.662;2023-08-30T06:33:58;0.00;;;0.00;;
31378;SDS011;61664;48.112;11.662;2023-08-30T06:36:25;0.00;;;0.00;;
31378;SDS011;61664;48.112;11.662;2023-08-30T06:38:52;0.00;;;0.00;;
31378;SDS011;61664;48.112;11.662;2023-08-30T06:41:19;0.00;;;0.00;;
31378;SDS011;61664;48.112;11.662;2023-08-30T06:43:46;0.00;;;0.00;;
31378;SDS011;61664;48.112;11.662;2023-08-30T06:46:13;0.00;;;0.00;;
31378;SDS011;61664;48.112;11.662;2023-08-30T06:48:40;0.00;;;0.00;;
31378;SDS011;61664;48.112;11.662;2023-08-30T06:51:07;0.00;;;0.00;;
31378;SDS011;61664;48.112;11.662;2023-08-30T06:53:34;0.00;;;0.00;;
31378;SDS011;61664;48.112;11.662;2023-08-30T06:56:00;0.10;;;0.00;;
31378;SDS011;61664;48.112;11.662;2023-08-30T06:58:28;0.00;;;0.00;;
31378;SDS011;61664;48.112;11.662;2023-08-30T07:00:59;0.00;;;0.00;;
31378;SDS011;61664;48.112;11.662;2023-08-30T07:03:26;0.00;;;0.00;;
31378;SDS011;61664;48.112;11.662;2023-08-30T07:05:53;0.00;;;0.00;;
31378;SDS011;61664;48.112;11.662;2023-08-30T07:08:20;0.00;;;0.00;;
31378;SDS011;61664;48.112;11.662;2023-08-30T07:10:48;0.00;;;0.00;;
31378;SDS011;61664;48.112;11.662;2023-08-30T07:13:15;0.00;;;0.00;;
31378;SDS011;61664;48.112;11.662;2023-08-30T07:15:42;0.00;;;0.00;;
31378;SDS011;61664;48.112;11.662;2023-08-30T07:18:09;0.00;;;0.00;;
31378;SDS011;61664;48.112;11.662;2023-08-30T07:20:38;0.00;;;0.00;;
31378;SDS011;61664;48.112;11.662;2023-08-30T07:23:05;0.00;;;0.00;;
31378;SDS011;61664;48.112;11.662;2023-08-30T07:25:36;0.00;;;0.00;;
31378;SDS011;61664;48.112;11.662;2023-08-30T07:28:05;0.00;;;0.00;;
31378;SDS011;61664;48.112;11.662;2023-08-30T07:30:33;0.10;;;0.10;;
31378;SDS011;61664;48.112;11.662;2023-08-30T07:33:01;0.00;;;0.00;;
31378;SDS011;61664;48.112;11.662;2023-08-30T07:35:30;0.00;;;0.00;;
31378;SDS011;61664;48.112;11.662;2023-08-30T07:37:59;0.00;;;0.00;;
31378;SDS011;61664;48.112;11.662;2023-08-30T07:40:26;0.00;;;0.00;;
31378;SDS011;61664;48.112;11.662;2023-08-30T07:42:54;0.00;;;0.00;;
31378;SDS011;61664;48.112;11.662;2023-08-30T07:45:24;0.00;;;0.00;;
31378;SDS011;61664;48.112;11.662;2023-08-30T07:47:51;0.00;;;0.00;;
31378;SDS011;61664;48.112;11.662;2023-08-30T07:50:18;0.00;;;0.00;;
31378;SDS011;61664;48.112;11.662;2023-08-30T07:52:45;0.00;;;0.00;;
31378;SDS011;61664;48.112;11.662;2023-08-30T07:55:13;0.10;;;0.10;;
31378;SDS011;61664;48.112;11.662;2023-08-30T07:57:40;0.00;;;0.00;;
31378;SDS011;61664;48.112;11.662;2023-08-30T08:00:08;0.00;;;0.00;;
31378;SDS011;61664;48.112;11.662;2023-08-30T08:02:35;0.00;;;0.00;;
31378;SDS011;61664;48.112;11.662;2023-08-30T08:05:02;0.00;;;0.00;;
31378;SDS011;61664;48.112;11.662;2023-08-30T08:07:29;0.00;;;0.00;;
31378;SDS011;61664;48.112;11.662;2023-08-30T08:09:56;0.00;;;0.00;;
31378;SDS011;61664;48.112;11.662;2023-08-30T08:12:23;0.00;;;0.00;;
31378;SDS011;61664;48.112;11.662;2023-08-30T08:14:52;0.00;;;0.00;;
31378;SDS011;61664;48.112;11.662;2023-08-30T08:17:19;0.00;;;0.00;;
31378;SDS011;61664;48.112;11.662;2023-08-30T08:19:46;0.00;;;0.00;;
31378;SDS011;61664;48.112;11.662;2023-08-30T08:22:13;0.00;;;0.00;;
31378;SDS011;61664;48.112;11.662;2023-08-30T08:24:40;0.00;;;0.00;;
31378;SDS011;61664;48.112;11.662;2023-08-30T08:27:07;0.00;;;0.00;;
31378;SDS011;61664;48.112;11.662;2023-08-30T08:29:33;0.00;;;0.00;;
31378;SDS011;61664;48.112;11.662;2023-08-30T08:32:01;0.00;;;0.00;;
31378;SDS011;61664;48.112;11.662;2023-08-30T08:34:28;0.03;;;0.03;;
31378;SDS011;61664;48.112;11.662;2023-08-30T08:36:56;0.08;;;0.08;;
31378;SDS011;61664;48.112;11.662;2023-08-30T08:39:22;0.00;;;0.00;;
31378;SDS011;61664;48.112;11.662;2023-08-30T08:41:49;0.00;;;0.00;;
31378;SDS011;61664;48.112;11.662;2023-08-30T08:44:21;0.00;;;0.00;;
31378;SDS011;61664;48.112;11.662;2023-08-30T08:46:52;0.00;;;0.00;;
31378;SDS011;61664;48.112;11.662;2023-08-30T08:49:20;0.00;;;0.00;;
31378;SDS011;61664;48.112;11.662;2023-08-30T08:51:47;0.05;;;0.05;;
31378;SDS011;61664;48.112;11.662;2023-08-30T08:54:15;0.00;;;0.00;;
31378;SDS011;61664;48.112;11.662;2023-08-30T08:56:43;0.00;;;0.00;;
31378;SDS011;61664;48.112;11.662;2023-08-30T08:59:11;0.10;;;0.10;;
31378;SDS011;61664;48.112;11.662;2023-08-30T09:01:38;0.00;;;0.00;;
31378;SDS011;61664;48.112;11.662;2023-08-30T09:04:07;0.00;;;0.00;;
31378;SDS011;61664;48.112;11.662;2023-08-30T09:06:36;0.00;;;0.00;;
31378;SDS011;61664;48.112;11.662;2023-08-30T09:09:06;0.10;;;0.10;;
31378;SDS011;61664;48.112;11.662;2023-08-30T09:11:34;0.10;;;0.10;;
31378;SDS011;61664;48.112;11.662;2023-08-30T09:14:05;0.00;;;0.00;;
31378;SDS011;61664;48.112;11.662;2023-08-30T09:16:32;0.00;;;0.00;;
31378;SDS011;61664;48.112;11.662;2023-08-30T09:19:02;0.00;;;0.00;;
31378;SDS011;61664;48.112;11.662;2023-08-30T09:21:34;0.00;;;0.00;;
31378;SDS011;61664;48.112;11.662;2023-08-30T09:24:04;0.00;;;0.00;;
31378;SDS011;61664;48.112;11.662;2023-08-30T09:26:33;0.00;;;0.00;;
31378;SDS011;61664;48.112;11.662;2023-08-30T09:29:03;0.00;;;0.00;;
31378;SDS011;61664;48.112;11.662;2023-08-30T09:31:35;0.00;;;0.00;;
31378;SDS011;61664;48.112;11.662;2023-08-30T09:34:06;0.00;;;0.00;;
31378;SDS011;61664;48.112;11.662;2023-08-30T09:36:34;0.00;;;0.00;;
31378;SDS011;61664;48.112;11.662;2023-08-30T09:39:07;0.10;;;0.10;;
31378;SDS011;61664;48.112;11.662;2023-08-30T09:44:10;0.10;;;0.10;;
31378;SDS011;61664;48.112;11.662;2023-08-30T09:46:43;0.00;;;0.00;;
31378;SDS011;61664;48.112;11.662;2023-08-30T09:49:19;0.00;;;0.00;;
31378;SDS011;61664;48.112;11.662;2023-08-30T09:51:52;0.00;;;0.00;;
31378;SDS011;61664;48.112;11.662;2023-08-30T09:54:22;0.00;;;0.00;;
31378;SDS011;61664;48.112;11.662;2023-08-30T09:56:53;0.00;;;0.00;;
31378;SDS011;61664;48.112;11.662;2023-08-30T09:59:23;0.00;;;0.00;;
31378;SDS011;61664;48.112;11.662;2023-08-30T10:01:51;0.98;;;0.00;;
31378;SDS011;61664;48.112;11.662;2023-08-30T10:04:20;0.10;;;0.10;;
31378;SDS011;61664;48.112;11.662;2023-08-30T10:06:47;0.00;;;0.00;;
31378;SDS011;61664;48.112;11.662;2023-08-30T10:09:16;0.10;;;0.10;;
31378;SDS011;61664;48.112;11.662;2023-08-30T10:11:45;0.05;;;0.05;;
31378;SDS011;61664;48.112;11.662;2023-08-30T10:14:13;0.20;;;0.20;;
31378;SDS011;61664;48.112;11.662;2023-08-30T10:16:42;0.00;;;0.00;;
31378;SDS011;61664;48.112;11.662;2023-08-30T10:19:14;0.00;;;0.00;;
31378;SDS011;61664;48.112;11.662;2023-08-30T10:21:42;0.00;;;0.00;;
31378;SDS011;61664;48.112;11.662;2023-08-30T10:24:18;0.00;;;0.00;;
31378;SDS011;61664;48.112;11.662;2023-08-30T10:27:01;0.10;;;0.10;;
31378;SDS011;61664;48.112;11.662;2023-08-30T10:29:34;0.00;;;0.00;;
31378;SDS011;61664;48.112;11.662;2023-08-30T10:32:04;0.10;;;0.10;;
31378;SDS011;61664;48.112;11.662;2023-08-30T10:34:33;0.00;;;0.00;;
31378;SDS011;61664;48.112;11.662;2023-08-30T10:37:03;0.20;;;0.00;;
31378;SDS011;61664;48.112;11.662;2023-08-30T10:39:35;0.00;;;0.00;;
31378;SDS011;61664;48.112;11.662;2023-08-30T10:42:13;0.00;;;0.00;;
31378;SDS011;61664;48.112;11.662;2023-08-30T10:44:51;0.00;;;0.00;;
31378;SDS011;61664;48.112;11.662;2023-08-30T10:47:38;0.00;;;0.00;;
31378;SDS011;61664;48.112;11.662;2023-08-30T10:50:07;0.00;;;0.00;;
31378;SDS011;61664;48.112;11.662;2023-08-30T10:52:37;0.60;;;0.60;;
31378;SDS011;61664;48.112;11.662;2023-08-30T10:55:05;0.80;;;0.80;;
31378;SDS011;61664;48.112;11.662;2023-08-30T10:57:36;0.47;;;0.47;;
31378;SDS011;61664;48.112;11.662;2023-08-30T11:00:08;0.70;;;0.70;;
31378;SDS011;61664;48.112;11.662;2023-08-30T11:02:37;0.80;;;0.80;;
31378;SDS011;61664;48.112;11.662;2023-08-30T11:05:08;0.73;;;0.73;;
31378;SDS011;61664;48.112;11.662;2023-08-30T11:07:35;0.57;;;0.57;;
31378;SDS011;61664;48.112;11.662;2023-08-30T11:10:06;0.60;;;0.60;;
31378;SDS011;61664;48.112;11.662;2023-08-30T11:12:35;0.60;;;0.60;;
31378;SDS011;61664;48.112;11.662;2023-08-30T11:15:02;0.50;;;0.50;;
31378;SDS011;61664;48.112;11.662;2023-08-30T11:17:30;1.23;;;0.93;;
31378;SDS011;61664;48.112;11.662;2023-08-30T11:19:58;1.05;;;1.05;;
31378;SDS011;61664;48.112;11.662;2023-08-30T11:22:39;0.73;;;0.73;;
31378;SDS011;61664;48.112;11.662;2023-08-30T11:25:13;0.90;;;0.90;;
31378;SDS011;61664;48.112;11.662;2023-08-30T11:27:43;0.90;;;0.90;;
31378;SDS011;61664;48.112;11.662;2023-08-30T11:30:10;1.10;;;1.10;;
31378;SDS011;61664;48.112;11.662;2023-08-30T11:32:38;0.75;;;0.75;;
31378;SDS011;61664;48.112;11.662;2023-08-30T11:35:10;1.77;;;0.90;;
31378;SDS011;61664;48.112;11.662;2023-08-30T11:37:37;1.02;;;1.02;;
31378;SDS011;61664;48.112;11.662;2023-08-30T11:40:07;0.98;;;0.98;;
31378;SDS011;61664;48.112;11.662;2023-08-30T11:42:37;1.17;;;1.17;;
31378;SDS011;61664;48.112;11.662;2023-08-30T11:45:05;1.25;;;1.25;;
31378;SDS011;61664;48.112;11.662;2023-08-30T11:47:33;0.88;;;0.88;;
31378;SDS011;61664;48.112;11.662;2023-08-30T11:50:00;1.05;;;1.05;;
31378;SDS011;61664;48.112;11.662;2023-08-30T11:52:28;1.33;;;1.23;;
31378;SDS011;61664;48.112;11.662;2023-08-30T11:54:55;1.25;;;1.25;;
31378;SDS011;61664;48.112;11.662;2023-08-30T11:57:22;1.25;;;1.17;;
31378;SDS011;61664;48.112;11.662;2023-08-30T11:59:49;0.98;;;0.98;;
31378;SDS011;61664;48.112;11.662;2023-08-30T12:02:17;1.60;;;1.50;;
31378;SDS011;61664;48.112;11.662;2023-08-30T12:04:45;1.23;;;1.13;;
31378;SDS011;61664;48.112;11.662;2023-08-30T12:07:23;1.95;;;1.25;;
31378;SDS011;61664;48.112;11.662;2023-08-30T12:09:52;1.38;;;1.27;;
31378;SDS011;61664;48.112;11.662;2023-08-30T12:12:31;1.35;;;1.20;;
31378;SDS011;61664;48.112;11.662;2023-08-30T12:14:58;1.27;;;1.27;;
31378;SDS011;61664;48.112;11.662;2023-08-30T12:17:25;1.45;;;1.38;;
31378;SDS011;61664;48.112;11.662;2023-08-30T12:19:58;1.73;;;1.63;;
31378;SDS011;61664;48.112;11.662;2023-08-30T12:22:40;1.35;;;1.35;;
31378;SDS011;61664;48.112;11.662;2023-08-30T12:25:21;1.17;;;1.10;;
31378;SDS011;61664;48.112;11.662;2023-08-30T12:27:53;1.25;;;1.25;;
31378;SDS011;61664;48.112;11.662;2023-08-30T12:30:20;1.15;;;1.15;;
31378;SDS011;61664;48.112;11.662;2023-08-30T12:32:47;1.15;;;1.15;;
31378;SDS011;61664;48.112;11.662;2023-08-30T12:35:15;1.10;;;1.10;;
31378;SDS011;61664;48.112;11.662;2023-08-30T12:37:42;1.40;;;1.30;;
31378;SDS011;61664;48.112;11.662;2023-08-30T12:40:09;1.20;;;1.05;;
31378;SDS011;61664;48.112;11.662;2023-08-30T12:42:37;1.20;;;1.20;;
31378;SDS011;61664;48.112;11.662;2023-08-30T12:45:04;1.48;;;1.42;;
31378;SDS011;61664;48.112;11.662;2023-08-30T12:47:32;1.20;;;1.20;;
31378;SDS011;61664;48.112;11.662;2023-08-30T12:49:59;1.08;;;1.08;;
31378;SDS011;61664;48.112;11.662;2023-08-30T12:52:26;1.65;;;1.50;;
31378;SDS011;61664;48.112;11.662;2023-08-30T12:54:53;1.20;;;1.20;;
31378;SDS011;61664;48.112;11.662;2023-08-30T12:57:20;1.60;;;1.50;;
31378;SDS011;61664;48.112;11.662;2023-08-30T12:59:47;1.88;;;1.50;;
31378;SDS011;61664;48.112;11.662;2023-08-30T13:02:14;1.65;;;1.42;;
31378;SDS011;61664;48.112;11.662;2023-08-30T13:04:41;1.35;;;1.30;;
31378;SDS011;61664;48.112;11.662;2023-08-30T13:07:08;1.42;;;1.33;;
31378;SDS011;61664;48.112;11.662;2023-08-30T13:09:35;1.48;;;1.40;;
31378;SDS011;61664;48.112;11.662;2023-08-30T13:12:02;2.10;;;1.60;;
31378;SDS011;61664;48.112;11.662;2023-08-30T13:14:30;2.08;;;1.67;;
31378;SDS011;61664;48.112;11.662;2023-08-30T13:16:57;1.13;;;1.13;;
31378;SDS011;61664;48.112;11.662;2023-08-30T13:19:24;1.50;;;1.45;;
31378;SDS011;61664;48.112;11.662;2023-08-30T13:21:50;1.30;;;1.30;;
31378;SDS011;61664;48.112;11.662;2023-08-30T13:24:17;2.05;;;1.95;;
31378;SDS011;61664;48.112;11.662;2023-08-30T13:26:44;1.60;;;1.50;;
31378;SDS011;61664;48.112;11.662;2023-08-30T13:29:11;1.30;;;1.30;;
31378;SDS011;61664;48.112;11.662;2023-08-30T13:31:38;1.50;;;1.40;;
31378;SDS011;61664;48.112;11.662;2023-08-30T13:34:05;1.20;;;1.15;;
31378;SDS011;61664;48.112;11.662;2023-08-30T13:36:32;1.60;;;1.50;;
31378;SDS011;61664;48.112;11.662;2023-08-30T13:38:59;1.70;;;1.60;;
31378;SDS011;61664;48.112;11.662;2023-08-30T13:41:26;1.60;;;1.50;;
31378;SDS011;61664;48.112;11.662;2023-08-30T13:43:53;1.08;;;1.08;;
31378;SDS011;61664;48.112;11.662;2023-08-30T13:46:24;1.50;;;1.40;;
31378;SDS011;61664;48.112;11.662;2023-08-30T13:48:51;1.00;;;1.00;;
31378;SDS011;61664;48.112;11.662;2023-08-30T13:51:25;1.20;;;1.20;;
31378;SDS011;61664;48.112;11.662;2023-08-30T13:53:53;1.10;;;1.10;;
31378;SDS011;61664;48.112;11.662;2023-08-30T13:56:20;0.80;;;0.80;;
31378;SDS011;61664;48.112;11.662;2023-08-30T13:58:47;1.02;;;1.02;;
31378;SDS011;61664;48.112;11.662;2023-08-30T14:01:14;1.65;;;1.33;;
31378;SDS011;61664;48.112;11.662;2023-08-30T14:03:41;3.10;;;2.78;;
31378;SDS011;61664;48.112;11.662;2023-08-30T14:06:09;2.78;;;2.67;;
31378;SDS011;61664;48.112;11.662;2023-08-30T14:08:36;2.92;;;2.83;;
31378;SDS011;61664;48.112;11.662;2023-08-30T14:11:03;1.92;;;1.83;;
31378;SDS011;61664;48.112;11.662;2023-08-30T14:13:30;2.58;;;2.35;;
31378;SDS011;61664;48.112;11.662;2023-08-30T14:16:00;2.20;;;2.10;;
31378;SDS011;61664;48.112;11.662;2023-08-30T14:18:29;2.40;;;2.30;;
31378;SDS011;61664;48.112;11.662;2023-08-30T14:20:59;2.30;;;2.20;;
31378;SDS011;61664;48.112;11.662;2023-08-30T14:23:26;2.65;;;2.55;;
31378;SDS011;61664;48.112;11.662;2023-08-30T14:25:58;2.85;;;2.75;;
31378;SDS011;61664;48.112;11.662;2023-08-30T14:28:38;3.08;;;2.88;;
31378;SDS011;61664;48.112;11.662;2023-08-30T14:31:06;2.83;;;2.65;;
31378;SDS011;61664;48.112;11.662;2023-08-30T14:33:42;6.03;;;3.05;;
31378;SDS011;61664;48.112;11.662;2023-08-30T14:36:11;4.03;;;2.20;;
31378;SDS011;61664;48.112;11.662;2023-08-30T14:38:39;3.80;;;2.58;;
31378;SDS011;61664;48.112;11.662;2023-08-30T14:41:07;2.30;;;2.20;;
31378;SDS011;61664;48.112;11.662;2023-08-30T14:43:34;2.92;;;2.72;;
31378;SDS011;61664;48.112;11.662;2023-08-30T14:46:05;2.80;;;2.70;;
31378;SDS011;61664;48.112;11.662;2023-08-30T14:48:38;2.88;;;2.78;;
31378;SDS011;61664;48.112;11.662;2023-08-30T14:51:06;2.97;;;2.88;;